Time;durP1;ratioP1;P1;durP2;ratioP2;P2;SDS_P1;SDS_P2;PMS_P1;PMS_P2;Temp;Humidity;BMP_temperature;BMP_pressure;BME280_temperature;BME280_humidity;BME280_pressure;Samples;Min_cycle;Max_cycle;Signal;HPM_P1;HPM_P2
2021/07/13 00:01:27;;;;;;;6.8;4.1;;;;;;;;;;;;;
2021/07/13 00:03:53;;;;;;;5;3.4;;;;;;;;;;;;;
2021/07/13 00:06:18;;;;;;;4;3.6;;;;;;;;;;;;;
2021/07/13 00:08:51;;;;;;;4.6;3.4;;;;;;;;;;;;;
2021/07/13 00:11:11;;;;;;;5.1;3.5;;;;;;;;;;;;;
2021/07/13 00:13:37;;;;;;;4.7;4;;;;;;;;;;;;;
2021/07/13 00:16:02;;;;;;;3.8;3.4;;;;;;;;;;;;;
2021/07/13 00:18:28;;;;;;;3.8;3.5;;;;;;;;;;;;;
2021/07/13 00:20:54;;;;;;;4.5;3.4;;;;;;;;;;;;;
2021/07/13 00:23:20;;;;;;;4.4;3.5;;;;;;;;;;;;;
2021/07/13 00:25:45;;;;;;;6.1;3.8;;;;;;;;;;;;;
2021/07/13 00:28:10;;;;;;;5;3.5;;;;;;;;;;;;;
2021/07/13 00:30:35;;;;;;;4.3;3.7;;;;;;;;;;;;;
2021/07/13 00:33:02;;;;;;;3.6;3.2;;;;;;;;;;;;;
2021/07/13 00:35:27;;;;;;;4.1;3.7;;;;;;;;;;;;;
2021/07/13 00:37:53;;;;;;;4;3.5;;;;;;;;;;;;;
2021/07/13 00:40:18;;;;;;;5.1;3.7;;;;;;;;;;;;;
2021/07/13 00:42:44;;;;;;;4.9;3.8;;;;;;;;;;;;;
2021/07/13 00:45:09;;;;;;;4.9;3.6;;;;;;;;;;;;;
2021/07/13 00:47:36;;;;;;;5.2;3.8;;;;;;;;;;;;;
2021/07/13 00:50:01;;;;;;;4.6;3.7;;;;;;;;;;;;;
2021/07/13 00:52:27;;;;;;;5.8;3.9;;;;;;;;;;;;;
2021/07/13 00:54:52;;;;;;;3.9;3.5;;;;;;;;;;;;;
2021/07/13 00:57:22;;;;;;;4.9;3.6;;;;;;;;;;;;;
2021/07/13 00:59:48;;;;;;;5.1;3.9;;;;;;;;;;;;;
2021/07/13 01:02:13;;;;;;;4.3;3.9;;;;;;;;;;;;;
2021/07/13 01:04:40;;;;;;;6.8;4.1;;;;;;;;;;;;;
2021/07/13 01:07:05;;;;;;;5.1;3.7;;;;;;;;;;;;;
2021/07/13 01:09:31;;;;;;;4.9;3.7;;;;;;;;;;;;;
2021/07/13 01:11:56;;;;;;;5.3;3.9;;;;;;;;;;;;;
2021/07/13 01:14:21;;;;;;;6.6;4.3;;;;;;;;;;;;;
2021/07/13 01:16:46;;;;;;;4.6;4.1;;;;;;;;;;;;;
2021/07/13 01:19:11;;;;;;;5.8;4.1;;;;;;;;;;;;;
2021/07/13 01:21:37;;;;;;;8.3;4.4;;;;;;;;;;;;;
2021/07/13 01:24:02;;;;;;;6.4;4.3;;;;;;;;;;;;;
2021/07/13 01:26:28;;;;;;;5.3;3.8;;;;;;;;;;;;;
2021/07/13 01:28:53;;;;;;;6.7;4.1;;;;;;;;;;;;;
2021/07/13 01:31:18;;;;;;;4.8;4;;;;;;;;;;;;;
2021/07/13 01:33:43;;;;;;;4.7;4.3;;;;;;;;;;;;;
2021/07/13 01:36:08;;;;;;;4.8;4;;;;;;;;;;;;;
2021/07/13 01:38:33;;;;;;;6.1;4.2;;;;;;;;;;;;;
2021/07/13 01:40:58;;;;;;;6.3;4.5;;;;;;;;;;;;;
2021/07/13 01:43:25;;;;;;;7.8;4.6;;;;;;;;;;;;;
2021/07/13 01:45:50;;;;;;;5.6;4.4;;;;;;;;;;;;;
2021/07/13 01:48:16;;;;;;;5.8;4.4;;;;;;;;;;;;;
2021/07/13 01:50:41;;;;;;;7.1;4.5;;;;;;;;;;;;;
2021/07/13 01:53:07;;;;;;;6.6;4.3;;;;;;;;;;;;;
2021/07/13 01:55:33;;;;;;;6.6;4.6;;;;;;;;;;;;;
2021/07/13 01:57:59;;;;;;;5.3;4.6;;;;;;;;;;;;;
2021/07/13 02:00:24;;;;;;;5.2;4.3;;;;;;;;;;;;;
2021/07/13 02:02:49;;;;;;;5.7;4.4;;;;;;;;;;;;;
2021/07/13 02:05:14;;;;;;;6;4.5;;;;;;;;;;;;;
2021/07/13 02:07:39;;;;;;;6.4;4.6;;;;;;;;;;;;;
2021/07/13 02:10:05;;;;;;;7.9;4.7;;;;;;;;;;;;;
2021/07/13 02:12:31;;;;;;;8.3;4.9;;;;;;;;;;;;;
2021/07/13 02:14:56;;;;;;;8.7;5;;;;;;;;;;;;;
2021/07/13 02:17:23;;;;;;;6.8;4.7;;;;;;;;;;;;;
2021/07/13 02:19:48;;;;;;;6.8;5;;;;;;;;;;;;;
2021/07/13 02:22:14;;;;;;;7.3;5.1;;;;;;;;;;;;;
2021/07/13 02:24:39;;;;;;;7.2;5.5;;;;;;;;;;;;;
2021/07/13 02:27:05;;;;;;;6.9;5.4;;;;;;;;;;;;;
2021/07/13 02:29:30;;;;;;;7.9;5.3;;;;;;;;;;;;;
2021/07/13 02:31:57;;;;;;;8.9;5.6;;;;;;;;;;;;;
2021/07/13 02:34:23;;;;;;;6.9;5;;;;;;;;;;;;;
2021/07/13 02:36:49;;;;;;;8.8;5.2;;;;;;;;;;;;;
2021/07/13 02:39:13;;;;;;;6;4.7;;;;;;;;;;;;;
2021/07/13 02:41:39;;;;;;;7.7;4.8;;;;;;;;;;;;;
2021/07/13 02:44:04;;;;;;;8.8;4.8;;;;;;;;;;;;;
2021/07/13 02:46:29;;;;;;;7.2;5.6;;;;;;;;;;;;;
2021/07/13 02:48:54;;;;;;;12.3;6.1;;;;;;;;;;;;;
2021/07/13 02:51:20;;;;;;;9.3;5.9;;;;;;;;;;;;;
2021/07/13 02:53:44;;;;;;;8.3;5.5;;;;;;;;;;;;;
2021/07/13 02:56:10;;;;;;;8.1;5.6;;;;;;;;;;;;;
2021/07/13 02:58:35;;;;;;;8.1;5.7;;;;;;;;;;;;;
2021/07/13 03:01:02;;;;;;;8.4;5.9;;;;;;;;;;;;;
2021/07/13 03:03:27;;;;;;;8.3;5.6;;;;;;;;;;;;;
2021/07/13 03:05:53;;;;;;;9.8;6;;;;;;;;;;;;;
2021/07/13 03:08:17;;;;;;;9.5;6.1;;;;;;;;;;;;;
2021/07/13 03:10:45;;;;;;;10.8;5.2;;;;;;;;;;;;;
2021/07/13 03:13:09;;;;;;;9.4;6.1;;;;;;;;;;;;;
2021/07/13 03:15:42;;;;;;;7;5.6;;;;;;;;;;;;;
2021/07/13 03:18:07;;;;;;;9.8;6;;;;;;;;;;;;;
2021/07/13 03:20:32;;;;;;;9.9;5.9;;;;;;;;;;;;;
2021/07/13 03:22:58;;;;;;;9.8;6.5;;;;;;;;;;;;;
2021/07/13 03:25:23;;;;;;;8;5.3;;;;;;;;;;;;;
2021/07/13 03:27:49;;;;;;;7.4;6.3;;;;;;;;;;;;;
2021/07/13 03:30:14;;;;;;;8.5;5.7;;;;;;;;;;;;;
2021/07/13 03:32:39;;;;;;;7.2;5.7;;;;;;;;;;;;;
2021/07/13 03:35:04;;;;;;;9.5;5.8;;;;;;;;;;;;;
2021/07/13 03:37:31;;;;;;;7.6;6;;;;;;;;;;;;;
2021/07/13 03:39:56;;;;;;;8.6;6.1;;;;;;;;;;;;;
2021/07/13 03:42:22;;;;;;;8.9;5.8;;;;;;;;;;;;;
2021/07/13 03:44:47;;;;;;;9.1;5.6;;;;;;;;;;;;;
2021/07/13 03:47:15;;;;;;;9.7;5.8;;;;;;;;;;;;;
2021/07/13 03:49:40;;;;;;;8.4;5.8;;;;;;;;;;;;;
2021/07/13 03:52:05;;;;;;;7;6.2;;;;;;;;;;;;;
2021/07/13 03:54:30;;;;;;;7.5;6;;;;;;;;;;;;;
2021/07/13 03:56:55;;;;;;;7.7;5.6;;;;;;;;;;;;;
2021/07/13 03:59:21;;;;;;;8.2;5.9;;;;;;;;;;;;;
2021/07/13 04:02:31;;;;;;;9.3;5.8;;;;;;;17.78;91.97656;929.4233;;;;
2021/07/13 04:04:56;;;;;;;7.1;6.3;;;;;;;17.77;92.76367;929.2868;;;;
2021/07/13 04:07:22;;;;;;;10.2;6.3;;;;;;;17.82;93.61133;929.4143;;;;
2021/07/13 04:09:47;;;;;;;7.1;5.7;;;;;;;17.84;93.31543;929.2992;;;;
2021/07/13 04:12:16;;;;;;;8.6;6.3;;;;;;;17.97;92.80566;929.4023;;;;
2021/07/13 04:14:41;;;;;;;10.6;5.7;;;;;;;18.04;92.17285;929.4475;;;;
2021/07/13 04:17:06;;;;;;;8.6;5.8;;;;;;;18.16;91.42871;929.4525;;;;
2021/07/13 04:19:31;;;;;;;9.5;5.8;;;;;;;18.19;91.30762;929.4908;;;;
2021/07/13 04:22:01;;;;;;;6.3;5.6;;;;;;;18.27;90.93945;929.5345;;;;
2021/07/13 04:24:26;;;;;;;6.5;5.5;;;;;;;18.18;90.71191;929.5566;;;;
2021/07/13 04:26:56;;;;;;;9.7;5.7;;;;;;;18.31;90.36719;929.4781;;;;
2021/07/13 04:29:26;;;;;;;9.7;5.4;;;;;;;18.37;89.9043;929.4408;;;;
2021/07/13 04:31:51;;;;;;;8.5;5.7;;;;;;;18.41;89.96973;929.4507;;;;
2021/07/13 04:34:22;;;;;;;11.2;5.8;;;;;;;18.47;88.96875;929.4175;;;;
2021/07/13 04:36:47;;;;;;;9.9;5.9;;;;;;;18.5;88.75684;929.4017;;;;
2021/07/13 04:39:15;;;;;;;8.1;5.2;;;;;;;18.57;89.1416;929.3759;;;;
2021/07/13 04:41:44;;;;;;;6.6;5.1;;;;;;;18.64;88.5752;929.3949;;;;
2021/07/13 04:44:09;;;;;;;8.6;5.2;;;;;;;18.69;87.88574;929.3722;;;;
2021/07/13 04:46:35;;;;;;;5.8;5;;;;;;;18.78;87.33594;929.3045;;;;
2021/07/13 04:49:00;;;;;;;6.5;5;;;;;;;18.9;87.25488;929.2922;;;;
2021/07/13 04:51:27;;;;;;;5.2;4.7;;;;;;;19.06;86.85449;929.3367;;;;
2021/07/13 04:53:52;;;;;;;6.6;5.2;;;;;;;19.21;85.33496;929.3416;;;;
2021/07/13 04:56:19;;;;;;;5.5;5;;;;;;;19.33;86.10352;929.3703;;;;
2021/07/13 04:58:44;;;;;;;8.5;4.9;;;;;;;19.41;84.47656;929.4099;;;;
2021/07/13 05:01:09;;;;;;;8.6;4.8;;;;;;;19.22;85.38379;929.4745;;;;
2021/07/13 05:03:34;;;;;;;5.5;4.6;;;;;;;19.35;85.25684;929.3986;;;;
2021/07/13 05:06:03;;;;;;;6.9;4.9;;;;;;;19.35;85.1748;929.2928;;;;
2021/07/13 05:08:28;;;;;;;6.4;5;;;;;;;19.36;85.69141;929.2672;;;;
2021/07/13 05:10:56;;;;;;;10.5;5.5;;;;;;;19.57;84.46094;929.3049;;;;
2021/07/13 05:13:21;;;;;;;8;4.9;;;;;;;19.77;84.04395;929.1906;;;;
2021/07/13 05:15:50;;;;;;;12;5.4;;;;;;;19.79;82.61328;929.3369;;;;
2021/07/13 05:18:18;;;;;;;7.7;5.1;;;;;;;19.75;82.94434;929.395;;;;
2021/07/13 05:20:47;;;;;;;7;5;;;;;;;19.84;81.91211;929.402;;;;
2021/07/13 05:23:09;;;;;;;7;4.4;;;;;;;19.94;81.71875;929.3111;;;;
2021/07/13 05:25:35;;;;;;;6.5;4.2;;;;;;;20.11;80.67871;929.2897;;;;
2021/07/13 05:28:00;;;;;;;5.8;4.3;;;;;;;20.46;80.07715;929.4098;;;;
2021/07/13 05:30:27;;;;;;;5.1;4.1;;;;;;;21.35;75.87207;929.4042;;;;
2021/07/13 05:32:52;;;;;;;4.4;4;;;;;;;21.5;74.10645;929.3878;;;;
2021/07/13 05:35:15;;;;;;;5.1;3.6;;;;;;;21.99;72.25488;929.3819;;;;
2021/07/13 05:37:41;;;;;;;4.7;3.8;;;;;;;22.35;70.76465;929.3619;;;;
2021/07/13 05:40:06;;;;;;;4.8;3.4;;;;;;;23.14;69.25684;929.4182;;;;
2021/07/13 05:42:32;;;;;;;5.3;3.6;;;;;;;23.64;66.3457;929.4574;;;;
2021/07/13 05:44:57;;;;;;;4.8;3.6;;;;;;;24.14;64.54883;929.382;;;;
2021/07/13 05:47:24;;;;;;;5;3.7;;;;;;;24.43;63.28223;929.3472;;;;
2021/07/13 05:49:49;;;;;;;4.2;3.3;;;;;;;24.61;62.35352;929.2971;;;;
2021/07/13 05:52:17;;;;;;;3.9;3.5;;;;;;;24.9;61.01367;929.3208;;;;
2021/07/13 05:54:42;;;;;;;4.5;3.7;;;;;;;24.6;61.52637;929.2592;;;;
2021/07/13 05:57:12;;;;;;;4.7;3.7;;;;;;;24.67;62.02051;929.2732;;;;
2021/07/13 05:59:37;;;;;;;5.7;3.5;;;;;;;24.74;63.03125;929.3019;;;;
2021/07/13 06:02:02;;;;;;;3.8;3.4;;;;;;;24.94;61.72656;929.3961;;;;
2021/07/13 06:04:27;;;;;;;4.9;3.5;;;;;;;25.36;59.80078;929.3983;;;;
2021/07/13 06:06:53;;;;;;;5.5;3.5;;;;;;;24.78;61.55176;929.4229;;;;
2021/07/13 06:09:18;;;;;;;4.7;3.9;;;;;;;25.6;59.20605;929.3948;;;;
2021/07/13 06:11:46;;;;;;;4.7;4;;;;;;;25.79;57.56543;929.3;;;;
2021/07/13 06:14:11;;;;;;;3.9;3.6;;;;;;;26.62;55.63574;929.238;;;;
2021/07/13 06:16:45;;;;;;;3.7;3.3;;;;;;;27.36;53.85254;929.3077;;;;
2021/07/13 06:19:12;;;;;;;4;3.6;;;;;;;27.15;54.81152;929.3801;;;;
2021/07/13 06:21:37;;;;;;;5.9;4;;;;;;;27.76;53.21191;929.3544;;;;
2021/07/13 06:24:06;;;;;;;7.6;3.7;;;;;;;28.63;50.25781;929.2703;;;;
2021/07/13 06:26:31;;;;;;;4;3.6;;;;;;;28.6;51.72949;929.3444;;;;
2021/07/13 06:28:58;;;;;;;5.2;4.2;;;;;;;28.49;50.11133;929.3141;;;;
2021/07/13 06:31:23;;;;;;;4.1;3.7;;;;;;;29.01;49.7168;929.3702;;;;
2021/07/13 06:33:49;;;;;;;4.9;3.6;;;;;;;28.41;51.2793;929.3934;;;;
2021/07/13 06:36:14;;;;;;;5.4;3.8;;;;;;;29.33;48.99023;929.4189;;;;
2021/07/13 06:38:40;;;;;;;4.8;3.9;;;;;;;28.72;50.25586;929.3474;;;;
2021/07/13 06:41:05;;;;;;;4.6;3.7;;;;;;;29.59;48.68359;929.5352;;;;
2021/07/13 06:43:31;;;;;;;5.9;4;;;;;;;30.11;47.92871;929.4691;;;;
2021/07/13 06:45:56;;;;;;;4.3;3.7;;;;;;;28.26;53.44922;929.4761;;;;
2021/07/13 06:48:23;;;;;;;6.6;3.9;;;;;;;29.62;49.6875;929.4623;;;;
2021/07/13 06:50:47;;;;;;;5;4;;;;;;;29.63;49.55859;929.408;;;;
2021/07/13 06:53:13;;;;;;;4.7;3.8;;;;;;;29.58;48.49219;929.4835;;;;
2021/07/13 06:55:38;;;;;;;5.4;4.3;;;;;;;29.73;48.22266;929.4993;;;;
2021/07/13 06:58:05;;;;;;;7.1;4.5;;;;;;;28.07;53.8418;929.3275;;;;
2021/07/13 07:00:30;;;;;;;5.9;4.7;;;;;;;28.45;53.23535;929.358;;;;
2021/07/13 07:02:57;;;;;;;5.4;4.9;;;;;;;28.12;53.4082;929.3342;;;;
2021/07/13 07:05:22;;;;;;;6.4;4.3;;;;;;;29.43;50.85938;929.2808;;;;
2021/07/13 07:07:49;;;;;;;5.4;4.6;;;;;;;30.46;46.97363;929.2674;;;;
2021/07/13 07:10:14;;;;;;;4.4;4;;;;;;;30.09;48.67871;929.1741;;;;
2021/07/13 07:12:41;;;;;;;6.5;4.6;;;;;;;31.24;45.35645;929.1042;;;;
2021/07/13 07:15:06;;;;;;;6.1;4;;;;;;;30.75;46.01172;929.0313;;;;
2021/07/13 07:17:37;;;;;;;4.7;3.7;;;;;;;31.24;45.24902;929.0773;;;;
2021/07/13 07:20:06;;;;;;;5;3.7;;;;;;;31.81;43.34082;929.015;;;;
2021/07/13 07:22:35;;;;;;;3.8;3.4;;;;;;;32.24;42.19434;928.9598;;;;
2021/07/13 07:24:59;;;;;;;5;3.4;;;;;;;32.57;42.70508;929.003;;;;
2021/07/13 07:27:24;;;;;;;3.9;3.4;;;;;;;31.31;45.2793;928.9535;;;;
2021/07/13 07:29:51;;;;;;;4.8;3.7;;;;;;;30.5;46.47754;928.9398;;;;
2021/07/13 07:32:16;;;;;;;4.1;3.7;;;;;;;29.4;48.1875;928.9347;;;;
2021/07/13 07:34:42;;;;;;;6.2;3.6;;;;;;;29.47;49.50391;928.9514;;;;
2021/07/13 07:37:07;;;;;;;5.1;4.2;;;;;;;28.74;51.49609;928.9826;;;;
2021/07/13 07:39:33;;;;;;;5.9;4.7;;;;;;;28.05;53.04395;928.9842;;;;
2021/07/13 07:41:58;;;;;;;6.3;5.1;;;;;;;27.64;54.57422;929.0419;;;;
2021/07/13 07:44:23;;;;;;;6.4;4.8;;;;;;;27.06;57.09961;929.0486;;;;
2021/07/13 07:46:51;;;;;;;7.3;5.7;;;;;;;27.14;57.33594;929.0653;;;;
2021/07/13 07:49:16;;;;;;;6;5;;;;;;;28.27;54.46094;929.0961;;;;
2021/07/13 07:51:43;;;;;;;5.6;5;;;;;;;27.59;56.24219;929.0595;;;;
2021/07/13 07:54:08;;;;;;;5;4.6;;;;;;;28.25;52.98535;929.1702;;;;
2021/07/13 07:56:35;;;;;;;5.8;5;;;;;;;29.54;50.3584;929.2231;;;;
2021/07/13 07:59:02;;;;;;;6.5;5.2;;;;;;;30.75;47.18262;929.1595;;;;
2021/07/13 08:01:31;;;;;;;5.5;5;;;;;;;29.46;51.48242;929.095;;;;
2021/07/13 08:03:59;;;;;;;5.3;4.8;;;;;;;30.68;47.4873;929.0401;;;;
2021/07/13 08:06:24;;;;;;;5.2;4.8;;;;;;;31.59;45.45117;929.1011;;;;
2021/07/13 08:08:50;;;;;;;5.3;4.8;;;;;;;31.32;46.77637;929.1903;;;;
2021/07/13 08:11:16;;;;;;;5.5;4.5;;;;;;;32.28;43.34961;929.1657;;;;
2021/07/13 08:13:43;;;;;;;5.5;4.7;;;;;;;32.19;43.6416;929.1208;;;;
2021/07/13 08:16:18;;;;;;;5.2;4.7;;;;;;;30.92;46.30371;929.1743;;;;
2021/07/13 08:18:45;;;;;;;5.6;5.1;;;;;;;29.33;51.3252;929.2286;;;;
2021/07/13 08:21:15;;;;;;;7.6;5;;;;;;;30.07;48.64063;929.2053;;;;
2021/07/13 08:23:38;;;;;;;6;4.8;;;;;;;31.48;45.10449;929.2211;;;;
2021/07/13 08:26:07;;;;;;;5.9;5.1;;;;;;;30.74;47.26563;929.0787;;;;
2021/07/13 08:28:36;;;;;;;5.7;5;;;;;;;30.19;48.12695;929.1355;;;;
2021/07/13 08:31:00;;;;;;;5.3;4.8;;;;;;;30.16;50.12988;929.1303;;;;
2021/07/13 08:33:30;;;;;;;6;4.9;;;;;;;29.95;47.90039;929.1987;;;;
2021/07/13 08:35:55;;;;;;;6.4;5.4;;;;;;;28.84;50.76953;929.2509;;;;
2021/07/13 08:38:21;;;;;;;7.2;6.2;;;;;;;26.36;58.75;929.3289;;;;
2021/07/13 08:40:47;;;;;;;8.6;6.5;;;;;;;26.1;59.11914;929.3886;;;;
2021/07/13 08:43:12;;;;;;;6.7;5.9;;;;;;;25.7;60.41406;929.3912;;;;
2021/07/13 08:45:37;;;;;;;6.7;5.9;;;;;;;25.52;61.42773;929.3445;;;;
2021/07/13 08:48:05;;;;;;;7.7;5.2;;;;;;;25.34;62.29004;929.3748;;;;
2021/07/13 08:50:31;;;;;;;5;4.5;;;;;;;24.32;65.27051;929.3639;;;;
2021/07/13 08:52:59;;;;;;;5;4.4;;;;;;;24;66.5293;929.3728;;;;
2021/07/13 08:55:26;;;;;;;6.3;3.8;;;;;;;24.01;66.16602;929.4682;;;;
2021/07/13 08:57:51;;;;;;;3.6;2.9;;;;;;;23.43;67.33789;929.5488;;;;
2021/07/13 09:00:16;;;;;;;4.7;2.5;;;;;;;23.13;67.66797;929.5831;;;;
2021/07/13 09:02:44;;;;;;;3.2;2.3;;;;;;;22.79;67.6875;929.6152;;;;
2021/07/13 09:05:10;;;;;;;2.1;1.8;;;;;;;22.43;69.04199;929.6386;;;;
2021/07/13 09:07:34;;;;;;;2.8;1.6;;;;;;;22.25;69.58789;929.6069;;;;
2021/07/13 09:09:59;;;;;;;1.9;1.6;;;;;;;22.07;69.80469;929.6959;;;;
2021/07/13 09:12:25;;;;;;;2.3;1.2;;;;;;;22.24;70.59473;929.595;;;;
2021/07/13 09:14:50;;;;;;;1.3;1.1;;;;;;;22.43;70.84668;929.7556;;;;
2021/07/13 09:17:21;;;;;;;2;1.2;;;;;;;22.28;69.20508;929.8113;;;;
2021/07/13 09:19:50;;;;;;;1.7;0.9;;;;;;;21.94;69.55176;929.8042;;;;
2021/07/13 09:22:16;;;;;;;3.9;1.1;;;;;;;21.4;71.2207;929.9261;;;;
2021/07/13 09:24:43;;;;;;;3.5;1.1;;;;;;;21.36;71.0166;929.8777;;;;
2021/07/13 09:27:08;;;;;;;1.7;1.1;;;;;;;21.34;71.33984;929.6962;;;;
2021/07/13 09:29:51;;;;;;;0.9;0.9;;;;;;;21.46;70.92676;929.7257;;;;
2021/07/13 09:32:14;;;;;;;1.1;1;;;;;;;21.77;68.52734;929.7374;;;;
2021/07/13 09:34:41;;;;;;;2.5;1.2;;;;;;;22;67.4375;929.7756;;;;
2021/07/13 09:37:06;;;;;;;2;1.1;;;;;;;21.93;67.66113;929.7726;;;;
2021/07/13 09:39:36;;;;;;;3.4;1.5;;;;;;;21.68;68.91309;929.8996;;;;
2021/07/13 09:42:05;;;;;;;2.7;1;;;;;;;21.3;70.49121;929.9146;;;;
2021/07/13 09:44:41;;;;;;;2;0.7;;;;;;;21.02;69.9209;929.9445;;;;
2021/07/13 09:47:09;;;;;;;2.7;1;;;;;;;20.53;72.09766;929.9375;;;;
2021/07/13 09:49:35;;;;;;;1.4;0.9;;;;;;;20.63;71.54199;930.0266;;;;
2021/07/13 09:52:04;;;;;;;2.1;1;;;;;;;20.45;71.86133;929.8335;;;;
2021/07/13 09:54:31;;;;;;;6.4;1.9;;;;;;;20.06;73.7373;929.8961;;;;
2021/07/13 09:56:57;;;;;;;8.7;3.2;;;;;;;19.98;73.60645;929.9233;;;;
2021/07/13 09:59:22;;;;;;;7.2;2.8;;;;;;;19.9;74.15332;929.9637;;;;
2021/07/13 10:01:49;;;;;;;3.6;1.5;;;;;;;19.85;74.11035;929.9221;;;;
2021/07/13 10:04:14;;;;;;;3.6;1.1;;;;;;;19.61;72.93848;929.9373;;;;
2021/07/13 10:06:41;;;;;;;0.8;0.8;;;;;;;19.69;73.26855;930.0273;;;;
2021/07/13 10:09:11;;;;;;;1.8;0.8;;;;;;;19.7;71.98633;930.1169;;;;
2021/07/13 10:11:31;;;;;;;0.7;0.5;;;;;;;19.51;72.10645;930.1646;;;;
2021/07/13 10:13:58;;;;;;;2.4;0.8;;;;;;;19.3;72.8877;930.118;;;;
2021/07/13 10:16:23;;;;;;;1.1;0.6;;;;;;;19.12;73.09082;930.152;;;;
2021/07/13 10:18:51;;;;;;;2.1;0.5;;;;;;;19.02;73.03809;930.1651;;;;
2021/07/13 10:21:16;;;;;;;1.6;0.7;;;;;;;18.92;74.05957;930.0756;;;;
2021/07/13 10:23:43;;;;;;;1.8;0.7;;;;;;;18.8;74.86426;930.1258;;;;
2021/07/13 10:26:10;;;;;;;1.1;0.9;;;;;;;18.94;74.81836;930.2606;;;;
2021/07/13 10:28:33;;;;;;;2.6;1;;;;;;;18.95;74.64551;930.4224;;;;
2021/07/13 10:31:02;;;;;;;1.4;1;;;;;;;18.95;74.01855;930.4319;;;;
2021/07/13 10:33:27;;;;;;;2;1;;;;;;;18.99;73.74414;930.3686;;;;
2021/07/13 10:35:57;;;;;;;5.2;1.2;;;;;;;18.9;73.8584;930.4475;;;;
2021/07/13 10:38:26;;;;;;;2.8;1.1;;;;;;;18.8;74.63184;930.5992;;;;
2021/07/13 10:40:52;;;;;;;1.7;1.1;;;;;;;18.86;74.32813;930.5441;;;;
2021/07/13 10:43:18;;;;;;;1.9;1;;;;;;;18.85;74.30273;930.5887;;;;
2021/07/13 10:45:43;;;;;;;1.7;1;;;;;;;18.81;72.84277;930.7148;;;;
2021/07/13 10:48:08;;;;;;;1.3;0.9;;;;;;;18.89;72.92383;930.7689;;;;
2021/07/13 10:50:37;;;;;;;1.6;1.2;;;;;;;18.91;72.73047;930.9303;;;;
2021/07/13 10:53:03;;;;;;;2.5;1;;;;;;;18.55;73.19629;931.0422;;;;
2021/07/13 10:55:28;;;;;;;1;1;;;;;;;18.54;72.92578;931.0571;;;;
2021/07/13 10:57:55;;;;;;;1.7;1;;;;;;;18.75;71.91113;931.1713;;;;
2021/07/13 11:00:22;;;;;;;1.4;0.8;;;;;;;18.44;72.03613;931.2653;;;;
2021/07/13 11:02:47;;;;;;;2.4;1.1;;;;;;;18.35;72.91699;931.3283;;;;
2021/07/13 11:05:13;;;;;;;1.7;0.8;;;;;;;18.5;72.52441;931.3261;;;;
2021/07/13 11:07:38;;;;;;;1.6;1;;;;;;;18.58;71.20996;931.36;;;;
2021/07/13 11:10:03;;;;;;;0.9;0.9;;;;;;;18.73;70.12988;931.4404;;;;
2021/07/13 11:12:28;;;;;;;1.8;1;;;;;;;18.79;69.78906;931.431;;;;
2021/07/13 11:14:58;;;;;;;2.5;1.1;;;;;;;18.24;72.07324;931.3406;;;;
2021/07/13 11:17:24;;;;;;;2.2;1;;;;;;;18.31;71.21484;931.4487;;;;
2021/07/13 11:19:49;;;;;;;1.1;1;;;;;;;18.17;72.8291;931.4167;;;;
2021/07/13 11:22:14;;;;;;;3.8;1;;;;;;;18.05;73.56348;931.5146;;;;
2021/07/13 11:24:43;;;;;;;0.9;0.8;;;;;;;17.94;72.93164;931.503;;;;
2021/07/13 11:27:08;;;;;;;4.3;1.2;;;;;;;17.69;73.99219;931.61;;;;
2021/07/13 11:29:34;;;;;;;1.7;1;;;;;;;17.92;74.43652;931.7444;;;;
2021/07/13 11:32:00;;;;;;;1.5;0.9;;;;;;;18;74.41602;931.9146;;;;
2021/07/13 11:34:25;;;;;;;0.7;0.6;;;;;;;18.11;73.42285;931.992;;;;
2021/07/13 11:36:50;;;;;;;1.4;0.8;;;;;;;18.17;73.66602;931.8775;;;;
2021/07/13 11:39:15;;;;;;;3.2;0.9;;;;;;;18.13;73.15918;931.8964;;;;
2021/07/13 11:41:43;;;;;;;1;0.7;;;;;;;18.18;72.14355;931.9498;;;;
2021/07/13 11:44:08;;;;;;;0.8;0.7;;;;;;;18.27;72.32324;932.0174;;;;
2021/07/13 11:46:35;;;;;;;1.5;0.5;;;;;;;17.73;72.58398;932.0403;;;;
2021/07/13 11:49:00;;;;;;;0.9;0.7;;;;;;;17.84;73.33105;931.9346;;;;
2021/07/13 11:51:29;;;;;;;3.3;0.7;;;;;;;17.82;73.30566;931.8835;;;;
2021/07/13 11:53:54;;;;;;;1.6;0.7;;;;;;;17.69;74.89746;931.8812;;;;
2021/07/13 11:56:22;;;;;;;1.8;0.8;;;;;;;17.81;75.96094;932.0125;;;;
2021/07/13 11:58:47;;;;;;;2.1;0.9;;;;;;;17.84;76.33887;931.9072;;;;
2021/07/13 12:01:13;;;;;;;3;0.7;;;;;;;17.67;75.48438;931.9402;;;;
2021/07/13 12:03:38;;;;;;;2.3;0.6;;;;;;;17.54;75.40527;932.0877;;;;
2021/07/13 12:06:03;;;;;;;1.3;0.6;;;;;;;17.4;77.25977;932.1983;;;;
2021/07/13 12:08:28;;;;;;;1;0.6;;;;;;;17.46;77.65332;932.3121;;;;
2021/07/13 12:10:53;;;;;;;1.2;0.6;;;;;;;17.45;78.09375;932.363;;;;
2021/07/13 12:13:20;;;;;;;0.7;0.7;;;;;;;17.35;80;932.3942;;;;
2021/07/13 12:15:47;;;;;;;1.7;0.7;;;;;;;17.3;81.3125;932.4086;;;;
2021/07/13 12:18:15;;;;;;;2.6;0.8;;;;;;;17.16;83.04883;932.5034;;;;
2021/07/13 12:20:40;;;;;;;2;0.9;;;;;;;17.13;84.3418;932.5765;;;;
2021/07/13 12:23:05;;;;;;;1.3;0.7;;;;;;;17.23;83.85156;932.6766;;;;
2021/07/13 12:25:30;;;;;;;2;1.1;;;;;;;17.14;85.81445;932.7381;;;;
2021/07/13 12:27:58;;;;;;;2.7;0.8;;;;;;;16.9;84.4707;932.6947;;;;
2021/07/13 12:30:23;;;;;;;3.7;1.3;;;;;;;17.03;85.77051;932.8574;;;;
2021/07/13 12:32:49;;;;;;;10;3.8;;;;;;;16.69;86.49219;932.7514;;;;
2021/07/13 12:35:17;;;;;;;6.8;2.6;;;;;;;16.79;84.62402;932.7073;;;;
2021/07/13 12:37:43;;;;;;;1.2;1.1;;;;;;;16.62;86.0498;932.698;;;;
2021/07/13 12:40:10;;;;;;;1.8;0.9;;;;;;;16.51;83.90039;932.582;;;;
2021/07/13 12:42:38;;;;;;;0.6;0.5;;;;;;;16.36;84.18359;932.5891;;;;
2021/07/13 12:45:07;;;;;;;2.5;1.5;;;;;;;16.06;88.96973;932.6459;;;;
2021/07/13 12:47:31;;;;;;;1.4;0.8;;;;;;;15.93;88.96484;932.7166;;;;
2021/07/13 12:50:00;;;;;;;2;0.7;;;;;;;16;88.58691;932.9673;;;;
2021/07/13 12:52:25;;;;;;;2.2;0.7;;;;;;;15.97;88.81445;933.1099;;;;
2021/07/13 12:54:53;;;;;;;1.7;0.8;;;;;;;15.9;91.87402;933.0831;;;;
2021/07/13 12:57:18;;;;;;;18.4;4.3;;;;;;;15.88;91.94922;932.8194;;;;
2021/07/13 12:59:43;;;;;;;5.5;2.7;;;;;;;16.05;90.99121;932.9216;;;;
2021/07/13 13:02:08;;;;;;;3.5;1.5;;;;;;;15.79;92.8916;933.2166;;;;
2021/07/13 13:04:35;;;;;;;4.8;2.3;;;;;;;16.04;92.67773;933.4116;;;;
2021/07/13 13:07:00;;;;;;;2.4;1.2;;;;;;;15.65;92.67578;933.5242;;;;
2021/07/13 13:09:28;;;;;;;1.2;1;;;;;;;15.38;95.06641;933.8954;;;;
2021/07/13 13:11:53;;;;;;;4.4;1;;;;;;;15.01;96.24316;934.1066;;;;
2021/07/13 13:14:20;;;;;;;1.1;0.8;;;;;;;15.26;95.46582;934.2023;;;;
2021/07/13 13:16:50;;;;;;;2.6;1;;;;;;;15.31;94.58887;934.1372;;;;
2021/07/13 13:19:18;;;;;;;2.9;1;;;;;;;15.56;95.81055;933.717;;;;
2021/07/13 13:21:43;;;;;;;2.2;1.2;;;;;;;15.44;96.26758;933.4367;;;;
2021/07/13 13:24:14;;;;;;;1.9;0.9;;;;;;;15.26;96.29688;933.2509;;;;
2021/07/13 13:26:36;;;;;;;1.8;0.9;;;;;;;15.49;96.97461;933.2679;;;;
2021/07/13 13:29:01;;;;;;;2.1;1;;;;;;;15.66;94.62891;933.3772;;;;
2021/07/13 13:31:26;;;;;;;2.3;0.8;;;;;;;15.6;93.32324;933.3981;;;;
2021/07/13 13:33:54;;;;;;;3.1;1;;;;;;;15.25;95.5332;933.4283;;;;
2021/07/13 13:36:22;;;;;;;1.5;0.9;;;;;;;15.29;96.09766;933.4059;;;;
2021/07/13 13:38:56;;;;;;;2;1.2;;;;;;;15.5;95.41504;933.775;;;;
2021/07/13 13:41:14;;;;;;;1.7;0.7;;;;;;;15.51;94.83984;933.9289;;;;
2021/07/13 13:43:44;;;;;;;3.6;1.4;;;;;;;15.66;94.57324;933.9783;;;;
2021/07/13 13:46:09;;;;;;;3.3;1.2;;;;;;;15.69;96.11328;934.0574;;;;
2021/07/13 13:48:36;;;;;;;2.4;0.8;;;;;;;15.87;95.79492;934.0522;;;;
2021/07/13 13:51:02;;;;;;;1.7;0.9;;;;;;;15.87;94.23633;934.2891;;;;
2021/07/13 13:53:30;;;;;;;1.9;0.8;;;;;;;15.63;93.95508;934.6041;;;;
2021/07/13 13:55:55;;;;;;;1.3;0.9;;;;;;;15.64;94.08398;934.9515;;;;
2021/07/13 13:58:21;;;;;;;1.8;0.8;;;;;;;15.84;94.51758;934.7424;;;;
2021/07/13 14:00:49;;;;;;;1.7;1;;;;;;;15.59;96.38184;934.4688;;;;
2021/07/13 14:03:15;;;;;;;2.4;1;;;;;;;15.35;98.5332;934.1559;;;;
2021/07/13 14:05:40;;;;;;;2.2;1;;;;;;;15.57;98.45703;934.1663;;;;
2021/07/13 14:08:07;;;;;;;3;1;;;;;;;15.67;96.27344;934.0882;;;;
2021/07/13 14:10:33;;;;;;;1.5;0.8;;;;;;;15.83;95.39551;934.0753;;;;
2021/07/13 14:12:59;;;;;;;1.3;0.8;;;;;;;15.94;93.34766;934.2565;;;;
2021/07/13 14:15:33;;;;;;;0.8;0.7;;;;;;;15.89;92.96875;934.3705;;;;
2021/07/13 14:17:58;;;;;;;2.2;0.9;;;;;;;15.87;93.06738;934.2545;;;;
2021/07/13 14:20:26;;;;;;;1.5;0.7;;;;;;;15.9;92.42871;934.3077;;;;
2021/07/13 14:22:51;;;;;;;1;0.7;;;;;;;15.91;92.36133;934.2737;;;;
2021/07/13 14:25:19;;;;;;;0.8;0.6;;;;;;;15.67;92.95703;934.337;;;;
2021/07/13 14:27:44;;;;;;;0.6;0.6;;;;;;;15.71;92.62988;934.3645;;;;
2021/07/13 14:30:14;;;;;;;1.6;0.6;;;;;;;15.89;93.62793;934.4348;;;;
2021/07/13 14:32:42;;;;;;;1.2;0.6;;;;;;;15.87;93.60059;934.4728;;;;
2021/07/13 14:35:07;;;;;;;1;0.7;;;;;;;15.91;92.9375;934.4955;;;;
2021/07/13 14:37:34;;;;;;;1.1;0.7;;;;;;;16.04;91.64648;934.6549;;;;
2021/07/13 14:39:59;;;;;;;1.7;0.8;;;;;;;16.01;92.21875;934.8125;;;;
2021/07/13 14:42:28;;;;;;;1.4;0.9;;;;;;;16.02;92.00098;934.8133;;;;
2021/07/13 14:44:53;;;;;;;1.4;1;;;;;;;15.93;93.20898;934.6252;;;;
2021/07/13 14:47:21;;;;;;;1.8;1.2;;;;;;;15.99;92.6543;934.4153;;;;
2021/07/13 14:49:48;;;;;;;1.5;0.9;;;;;;;15.69;93.75879;934.209;;;;
2021/07/13 14:52:13;;;;;;;1.1;0.9;;;;;;;15.82;93.12695;934.2417;;;;
2021/07/13 14:54:39;;;;;;;1;0.7;;;;;;;15.83;91.97461;934.2061;;;;
2021/07/13 14:57:05;;;;;;;2.1;0.9;;;;;;;15.86;93.41406;934.1696;;;;
2021/07/13 14:59:30;;;;;;;1.7;0.8;;;;;;;15.92;93.39258;934.1161;;;;
2021/07/13 15:01:58;;;;;;;1.6;0.6;;;;;;;15.74;92.17578;934.0083;;;;
2021/07/13 15:04:22;;;;;;;1.5;0.8;;;;;;;15.61;93.84277;934.0095;;;;
2021/07/13 15:06:47;;;;;;;2.4;0.9;;;;;;;15.73;93.95313;933.9611;;;;
2021/07/13 15:09:14;;;;;;;1.4;0.8;;;;;;;15.81;93.4248;933.9654;;;;
2021/07/13 15:11:40;;;;;;;1.1;1;;;;;;;15.86;93.86426;933.8779;;;;
2021/07/13 15:14:08;;;;;;;1.8;0.8;;;;;;;16.03;93.36719;933.5959;;;;
2021/07/13 15:16:38;;;;;;;1.1;0.8;;;;;;;15.99;92.01855;933.4925;;;;
2021/07/13 15:19:05;;;;;;;1.9;0.8;;;;;;;16.15;91.76367;933.5564;;;;
2021/07/13 15:21:30;;;;;;;1.2;0.7;;;;;;;16.27;91.0127;933.3639;;;;
2021/07/13 15:23:56;;;;;;;1.3;0.6;;;;;;;16.4;90.29883;933.015;;;;
2021/07/13 15:26:21;;;;;;;1.2;0.7;;;;;;;16.45;89.70801;932.9861;;;;
2021/07/13 15:28:49;;;;;;;1;0.7;;;;;;;16.46;89.50195;933.2319;;;;
2021/07/13 15:31:14;;;;;;;2.3;2.1;;;;;;;16.12;89.61621;933.4872;;;;
2021/07/13 15:33:41;;;;;;;1.1;1;;;;;;;16.33;89.97363;933.415;;;;
2021/07/13 15:36:06;;;;;;;1.8;0.6;;;;;;;16.41;89.35352;933.4261;;;;
2021/07/13 15:38:32;;;;;;;1.4;0.6;;;;;;;16.51;89.13086;933.5056;;;;